Time;durP1;ratioP1;P1;durP2;ratioP2;P2;SDS_P1;SDS_P2;PMS_P1;PMS_P2;Temp;Humidity;BMP_temperature;BMP_pressure;BME280_temperature;BME280_humidity;BME280_pressure;Samples;Min_cycle;Max_cycle;Signal;HPM_P1;HPM_P2
2022/07/10 00:02:14;;;;;;;0.40;0.40;;;17.70;99.90;;;;;;5033279;28;20187;-75
2022/07/10 00:04:39;;;;;;;0.30;0.30;;;17.70;99.90;;;;;;5032810;28;20551;-75
2022/07/10 00:07:05;;;;;;;0.40;0.40;;;17.70;99.90;;;;;;5032908;28;20172;-75
2022/07/10 00:09:31;;;;;;;0.30;0.30;;;17.70;99.90;;;;;;5032279;28;20176;-76
2022/07/10 00:11:57;;;;;;;0.30;0.30;;;17.70;99.90;;;;;;5032492;28;20234;-75
2022/07/10 00:14:22;;;;;;;0.40;0.40;;;17.70;99.90;;;;;;5032956;28;20207;-76
2022/07/10 00:16:48;;;;;;;0.30;0.30;;;17.70;99.90;;;;;;5032676;28;20191;-75
2022/07/10 00:19:14;;;;;;;0.30;0.30;;;17.70;99.90;;;;;;5032292;28;20175;-75
2022/07/10 00:21:39;;;;;;;0.37;0.37;;;17.80;99.90;;;;;;5032429;28;20187;-75
2022/07/10 00:24:05;;;;;;;0.30;0.30;;;17.80;99.90;;;;;;5032452;28;20634;-75
2022/07/10 00:26:30;;;;;;;0.30;0.30;;;17.80;99.90;;;;;;5032376;28;20190;-75
2022/07/10 00:28:56;;;;;;;0.30;0.30;;;17.70;99.90;;;;;;5032220;28;20183;-75
2022/07/10 00:31:22;;;;;;;0.30;0.30;;;17.80;99.90;;;;;;5032492;28;20186;-75
2022/07/10 00:33:51;;;;;;;0.40;0.40;;;17.70;99.90;;;;;;5032516;28;20172;-75
2022/07/10 00:36:16;;;;;;;0.30;0.30;;;17.70;99.90;;;;;;5032186;28;20175;-75
2022/07/10 00:38:42;;;;;;;0.30;0.30;;;17.60;99.90;;;;;;5032192;28;20190;-76
2022/07/10 00:41:07;;;;;;;0.23;0.23;;;17.60;99.90;;;;;;5031743;28;20180;-76
2022/07/10 00:43:53;;;;;;;0.30;0.30;;;17.60;99.90;;;;;;5032265;28;20246;-75
2022/07/10 00:46:22;;;;;;;0.30;0.30;;;17.60;99.90;;;;;;5032258;28;20179;-75
2022/07/10 00:48:48;;;;;;;0.30;0.30;;;17.60;99.90;;;;;;5032133;28;20180;-75
2022/07/10 00:51:16;;;;;;;0.30;0.30;;;17.60;99.90;;;;;;5031669;28;20633;-76
2022/07/10 00:53:44;;;;;;;0.30;0.30;;;17.60;99.90;;;;;;5031834;28;20196;-75
2022/07/10 00:56:10;;;;;;;0.27;0.27;;;17.60;99.90;;;;;;5031867;28;20187;-75
2022/07/10 00:58:36;;;;;;;0.30;0.30;;;17.60;99.90;;;;;;5032086;28;20234;-76
2022/07/10 01:01:02;;;;;;;0.30;0.30;;;17.60;99.90;;;;;;5031300;28;20271;-76
2022/07/10 01:03:28;;;;;;;0.30;0.30;;;17.60;99.90;;;;;;5031971;28;20678;-76
2022/07/10 01:05:53;;;;;;;0.23;0.23;;;17.60;99.90;;;;;;5031762;28;20230;-76
2022/07/10 01:08:19;;;;;;;0.30;0.30;;;17.60;99.90;;;;;;5031797;28;20225;-76
2022/07/10 01:10:47;;;;;;;0.37;0.37;;;17.50;99.90;;;;;;5031466;28;20180;-75
2022/07/10 01:13:13;;;;;;;0.33;0.33;;;17.50;99.90;;;;;;5031857;28;20199;-75
2022/07/10 01:15:38;;;;;;;0.40;0.40;;;17.40;99.90;;;;;;5031861;28;20188;-75
2022/07/10 01:18:04;;;;;;;0.30;0.30;;;17.30;99.90;;;;;;5031866;28;20213;-76
2022/07/10 01:20:32;;;;;;;0.30;0.30;;;17.20;99.90;;;;;;5031168;28;20199;-75
2022/07/10 01:22:57;;;;;;;0.30;0.30;;;17.10;99.90;;;;;;5031541;28;20685;-76
2022/07/10 01:25:23;;;;;;;0.30;0.30;;;17.10;99.90;;;;;;5031523;28;20207;-75
2022/07/10 01:27:48;;;;;;;0.30;0.30;;;17.00;99.90;;;;;;5031529;28;20175;-75
2022/07/10 01:30:14;;;;;;;0.40;0.40;;;16.90;99.90;;;;;;5031221;28;20187;-75
2022/07/10 01:32:40;;;;;;;0.40;0.40;;;16.80;99.90;;;;;;5031384;28;20239;-75
2022/07/10 01:35:07;;;;;;;0.40;0.40;;;16.80;99.90;;;;;;5031598;28;20724;-75
2022/07/10 01:37:32;;;;;;;0.30;0.30;;;16.80;99.90;;;;;;5031431;28;20176;-75
2022/07/10 01:39:58;;;;;;;0.30;0.30;;;16.70;93.80;;;;;;5031217;28;20268;-75
2022/07/10 01:42:23;;;;;;;0.30;0.30;;;16.60;92.50;;;;;;5031613;28;20298;-75
2022/07/10 01:44:49;;;;;;;0.40;0.40;;;16.50;87.70;;;;;;5031650;28;20637;-75
2022/07/10 01:47:14;;;;;;;0.30;0.30;;;16.50;91.40;;;;;;5032701;28;20190;-75
2022/07/10 01:49:40;;;;;;;0.40;0.40;;;16.40;99.30;;;;;;5034980;28;20233;-75
2022/07/10 01:52:06;;;;;;;0.40;0.40;;;16.30;97.80;;;;;;5035249;28;20199;-75
2022/07/10 01:54:31;;;;;;;0.30;0.30;;;16.20;98.80;;;;;;5035817;28;20183;-76
2022/07/10 01:56:57;;;;;;;0.30;0.30;;;16.20;99.90;;;;;;5035472;28;20180;-75
2022/07/10 01:59:23;;;;;;;0.30;0.30;;;16.10;96.20;;;;;;5034725;28;20287;-75
2022/07/10 02:01:48;;;;;;;0.30;0.30;;;16.00;99.90;;;;;;5035187;28;20192;-75
2022/07/10 02:06:58;;;;;;;0.30;0.30;;;15.80;99.90;;;;;;5035156;28;20687;-75
2022/07/10 02:09:24;;;;;;;0.30;0.30;;;15.80;99.90;;;;;;5034805;28;20211;-75
2022/07/10 02:11:49;;;;;;;0.30;0.30;;;15.70;99.90;;;;;;5035134;28;20202;-75
2022/07/10 02:14:15;;;;;;;0.30;0.30;;;15.70;99.90;;;;;;5034947;28;20626;-75
2022/07/10 02:16:40;;;;;;;0.30;0.30;;;15.70;99.90;;;;;;5034960;28;20176;-75
2022/07/10 02:19:06;;;;;;;0.30;0.30;;;15.60;99.90;;;;;;5034341;28;20183;-75
2022/07/10 02:21:31;;;;;;;0.30;0.30;;;15.60;99.90;;;;;;5034775;28;20198;-75
2022/07/10 02:23:57;;;;;;;0.40;0.40;;;15.50;99.90;;;;;;5034732;28;20673;-75
2022/07/10 02:26:22;;;;;;;0.40;0.40;;;15.50;99.90;;;;;;5034910;28;20265;-75
2022/07/10 02:28:48;;;;;;;0.30;0.30;;;15.40;99.90;;;;;;5034702;28;20275;-75
2022/07/10 02:31:13;;;;;;;0.30;0.30;;;15.40;99.90;;;;;;5034346;28;20176;-75
2022/07/10 02:33:39;;;;;;;0.30;0.30;;;15.40;99.90;;;;;;5034502;28;20242;-75
2022/07/10 02:36:05;;;;;;;0.30;0.30;;;15.40;99.90;;;;;;5034798;28;20187;-75
2022/07/10 02:38:30;;;;;;;0.40;0.40;;;15.40;99.90;;;;;;5034446;28;20187;-75
2022/07/10 02:40:56;;;;;;;0.30;0.30;;;15.40;99.90;;;;;;5034233;28;20180;-75
2022/07/10 02:43:21;;;;;;;0.40;0.40;;;15.40;99.90;;;;;;5034391;28;20282;-75
2022/07/10 02:45:47;;;;;;;0.40;0.40;;;15.50;99.90;;;;;;5034418;28;20238;-75
2022/07/10 02:48:14;;;;;;;0.30;0.30;;;15.50;99.90;;;;;;5034349;28;20179;-75
2022/07/10 02:50:40;;;;;;;0.30;0.30;;;15.60;99.90;;;;;;5033996;28;20219;-75
2022/07/10 02:53:05;;;;;;;0.30;0.30;;;15.60;99.90;;;;;;5034321;28;20702;-75
2022/07/10 02:55:31;;;;;;;0.30;0.30;;;15.70;99.90;;;;;;5034482;28;20176;-75
2022/07/10 02:57:58;;;;;;;0.40;0.40;;;15.80;99.90;;;;;;5034033;28;20641;-74
2022/07/10 03:00:24;;;;;;;0.30;0.30;;;15.80;99.90;;;;;;5033707;28;20314;-75
2022/07/10 03:02:50;;;;;;;0.40;0.40;;;15.90;99.90;;;;;;5033998;28;20287;-75
2022/07/10 03:05:15;;;;;;;0.30;0.30;;;16.00;99.90;;;;;;5034212;28;20212;-75
2022/07/10 03:07:41;;;;;;;0.40;0.40;;;16.00;99.90;;;;;;5034200;28;20168;-74
2022/07/10 03:10:06;;;;;;;0.40;0.40;;;16.00;99.90;;;;;;5033674;28;20172;-74
2022/07/10 03:12:32;;;;;;;0.30;0.30;;;16.00;99.90;;;;;;5033802;28;20628;-74
2022/07/10 03:14:59;;;;;;;0.30;0.30;;;16.00;99.90;;;;;;5033845;28;20819;-74
2022/07/10 03:17:25;;;;;;;0.40;0.40;;;15.90;99.90;;;;;;5033742;28;20230;-74
2022/07/10 03:19:50;;;;;;;0.30;0.30;;;15.90;99.90;;;;;;5033188;28;20176;-74
2022/07/10 03:22:16;;;;;;;0.30;0.30;;;15.80;99.90;;;;;;5033758;28;20290;-74
2022/07/10 03:24:43;;;;;;;0.33;0.33;;;15.80;99.90;;;;;;5033663;28;20215;-74
2022/07/10 03:27:08;;;;;;;0.30;0.30;;;15.80;99.90;;;;;;5033729;28;20654;-74
2022/07/10 03:29:34;;;;;;;0.30;0.30;;;15.70;99.90;;;;;;5033088;28;20180;-74
2022/07/10 03:32:00;;;;;;;0.30;0.30;;;15.60;99.90;;;;;;5033332;28;20685;-74
2022/07/10 03:34:25;;;;;;;0.40;0.40;;;15.60;99.90;;;;;;5033687;28;20266;-74
2022/07/10 03:36:51;;;;;;;0.37;0.37;;;15.60;99.90;;;;;;5033642;28;20237;-74
2022/07/10 03:39:17;;;;;;;0.30;0.30;;;15.60;99.90;;;;;;5032973;28;20176;-74
2022/07/10 03:41:42;;;;;;;0.50;0.50;;;15.60;99.90;;;;;;5033339;28;20237;-74
2022/07/10 03:44:08;;;;;;;0.30;0.30;;;15.60;99.90;;;;;;5025445;28;20250;-74
2022/07/10 03:46:33;;;;;;;0.40;0.40;;;15.60;99.90;;;;;;5040591;28;20171;-76
2022/07/10 03:48:59;;;;;;;0.30;0.30;;;15.60;99.90;;;;;;5040353;28;20171;-75
2022/07/10 03:51:25;;;;;;;0.40;0.40;;;15.60;99.90;;;;;;5035796;28;20704;-74
2022/07/10 03:53:50;;;;;;;0.40;0.40;;;15.60;99.90;;;;;;5044156;28;20167;-75
2022/07/10 03:59:01;;;;;;;0.43;0.43;;;15.50;99.90;;;;;;5021099;28;20221;-74
2022/07/10 04:01:27;;;;;;;0.23;0.23;;;15.50;99.90;;;;;;5052380;28;20175;-75
2022/07/10 04:03:52;;;;;;;0.40;0.40;;;15.50;99.90;;;;;;5044319;28;20179;-75
2022/07/10 04:06:18;;;;;;;0.33;0.33;;;15.40;99.90;;;;;;5052776;28;20269;-75
2022/07/10 04:08:43;;;;;;;0.27;0.27;;;15.50;99.90;;;;;;5041998;28;20195;-74
2022/07/10 04:11:09;;;;;;;0.33;0.33;;;15.50;99.90;;;;;;5037654;28;20180;-74
2022/07/10 04:13:34;;;;;;;0.37;0.37;;;15.50;99.90;;;;;;5032539;28;20187;-74
2022/07/10 04:16:00;;;;;;;0.30;0.30;;;15.50;99.90;;;;;;5032961;28;20172;-74
2022/07/10 04:18:25;;;;;;;0.30;0.30;;;15.50;99.90;;;;;;5032577;28;20168;-74
2022/07/10 04:20:51;;;;;;;0.30;0.30;;;15.40;99.90;;;;;;5032222;28;20191;-74
2022/07/10 04:23:16;;;;;;;0.30;0.30;;;15.40;99.90;;;;;;5031658;28;20215;-74
2022/07/10 04:25:42;;;;;;;0.20;0.20;;;15.40;99.90;;;;;;5031651;28;20207;-74
2022/07/10 04:28:07;;;;;;;0.33;0.33;;;15.40;99.90;;;;;;5031543;28;20180;-74
2022/07/10 04:30:33;;;;;;;0.30;0.30;;;15.40;99.90;;;;;;5031418;28;20582;-74
2022/07/10 04:32:58;;;;;;;0.30;0.30;;;15.30;99.90;;;;;;5031958;28;20210;-74
2022/07/10 04:35:24;;;;;;;0.30;0.30;;;15.40;99.90;;;;;;5031777;28;20669;-74
2022/07/10 04:37:49;;;;;;;0.30;0.30;;;15.40;99.90;;;;;;5031624;28;20262;-74
2022/07/10 04:40:15;;;;;;;0.30;0.30;;;15.50;99.90;;;;;;5030434;28;20660;-74
2022/07/10 04:42:40;;;;;;;0.30;0.30;;;15.60;99.90;;;;;;5031223;28;20191;-74
2022/07/10 04:45:06;;;;;;;0.40;0.40;;;15.70;99.90;;;;;;5031341;28;20222;-74
2022/07/10 04:47:31;;;;;;;0.27;0.27;;;15.90;99.90;;;;;;5031682;28;20230;-74
2022/07/10 04:49:57;;;;;;;0.30;0.30;;;16.20;99.90;;;;;;5030933;28;20179;-74
2022/07/10 04:52:22;;;;;;;0.30;0.30;;;16.30;99.90;;;;;;5031338;28;20686;-74
2022/07/10 04:54:48;;;;;;;0.30;0.30;;;16.30;99.90;;;;;;5031281;28;20207;-75
2022/07/10 04:57:13;;;;;;;0.30;0.30;;;16.30;99.90;;;;;;5030998;28;20186;-74
2022/07/10 04:59:39;;;;;;;0.30;0.30;;;16.30;99.90;;;;;;5030659;28;20172;-74
2022/07/10 05:02:04;;;;;;;0.30;0.30;;;16.10;99.90;;;;;;5031291;28;20188;-74
2022/07/10 05:04:30;;;;;;;0.30;0.30;;;16.00;99.90;;;;;;5031156;28;20203;-75
2022/07/10 05:06:55;;;;;;;0.30;0.30;;;16.00;99.90;;;;;;5029230;28;20206;-74
2022/07/10 05:09:21;;;;;;;0.33;0.33;;;16.00;99.90;;;;;;5022473;28;20203;-73
2022/07/10 05:11:47;;;;;;;0.30;0.30;;;16.00;99.90;;;;;;5021513;28;20200;-74
2022/07/10 05:14:12;;;;;;;0.30;0.30;;;16.00;99.90;;;;;;5020403;28;20638;-74
2022/07/10 05:16:38;;;;;;;0.30;0.30;;;16.00;99.90;;;;;;5020029;28;20176;-74
2022/07/10 05:19:03;;;;;;;0.40;0.40;;;16.10;99.90;;;;;;5018553;28;20211;-74
2022/07/10 05:21:30;;;;;;;0.40;0.40;;;16.10;99.90;;;;;;4990691;28;1022782;-74
2022/07/10 05:23:55;;;;;;;0.40;0.40;;;16.10;91.90;;;;;;5031703;28;20619;-74
2022/07/10 05:26:21;;;;;;;0.30;0.30;;;16.10;94.70;;;;;;5031657;28;20379;-74
2022/07/10 05:28:46;;;;;;;0.30;0.30;;;16.20;99.90;;;;;;5031368;28;20663;-74
2022/07/10 05:31:12;;;;;;;0.30;0.30;;;16.20;77.00;;;;;;5031516;28;20255;-74
2022/07/10 05:33:40;;;;;;;0.30;0.30;;;16.20;60.00;;;;;;5026972;28;20226;-74
2022/07/10 05:36:06;;;;;;;0.40;0.40;;;16.20;45.50;;;;;;5033233;28;20184;-74
2022/07/10 05:38:32;;;;;;;0.30;0.30;;;16.30;17.30;;;;;;5048424;28;20211;-74
2022/07/10 05:40:57;;;;;;;0.40;0.40;;;16.30;16.60;;;;;;5030559;28;20216;-74
2022/07/10 05:43:23;;;;;;;0.43;0.43;;;16.30;1.00;;;;;;5011703;28;20192;-74
2022/07/10 05:45:48;;;;;;;0.30;0.30;;;16.40;1.00;;;;;;5011537;28;20216;-74
2022/07/10 05:48:14;;;;;;;0.30;0.30;;;16.50;1.00;;;;;;5022934;28;20174;-74
2022/07/10 05:50:39;;;;;;;0.30;0.30;;;16.70;1.00;;;;;;5031033;28;20183;-74
2022/07/10 05:53:05;;;;;;;0.40;0.40;;;16.60;1.00;;;;;;5031313;28;20193;-74
2022/07/10 05:55:30;;;;;;;0.30;0.30;;;16.70;1.00;;;;;;5025895;28;20717;-74
2022/07/10 05:57:56;;;;;;;0.40;0.40;;;16.70;1.00;;;;;;5017200;28;20172;-74
2022/07/10 06:00:21;;;;;;;0.30;0.30;;;16.60;1.00;;;;;;5021020;28;20175;-73
2022/07/10 06:02:47;;;;;;;0.40;0.40;;;16.60;1.00;;;;;;5026877;28;20669;-75
2022/07/10 06:05:13;;;;;;;0.30;0.30;;;16.50;1.00;;;;;;5015749;28;20262;-74
2022/07/10 06:07:39;;;;;;;0.30;0.30;;;16.60;1.00;;;;;;5011665;28;20558;-74
2022/07/10 06:10:05;;;;;;;0.30;0.30;;;16.80;1.00;;;;;;5010907;28;20172;-73
2022/07/10 06:12:31;;;;;;;0.40;0.40;;;17.10;1.00;;;;;;5011416;28;20206;-74
2022/07/10 06:14:56;;;;;;;0.30;0.30;;;17.30;1.00;;;;;;5011677;28;20251;-78
2022/07/10 06:17:22;;;;;;;0.20;0.20;;;17.20;1.00;;;;;;5011597;28;20267;-74
2022/07/10 06:19:48;;;;;;;0.40;0.40;;;17.10;99.90;;;;;;5011103;28;20550;-74
2022/07/10 06:22:31;;;;;;;0.33;0.33;;;17.20;27.90;;;;;;5011174;28;20674;-74
2022/07/10 06:25:05;;;;;;;0.40;0.40;;;17.30;99.90;;;;;;5018914;28;20208;-74
2022/07/10 06:27:32;;;;;;;0.30;0.30;;;17.50;1.00;;;;;;5021105;28;20180;-75
2022/07/10 06:29:58;;;;;;;0.30;0.30;;;17.40;1.00;;;;;;5010744;28;20279;-74
2022/07/10 06:32:24;;;;;;;0.40;0.40;;;17.40;1.00;;;;;;5020964;28;20193;-75
2022/07/10 06:34:54;;;;;;;0.37;0.37;;;17.50;1.00;;;;;;5034380;28;20168;-75
2022/07/10 06:37:20;;;;;;;0.30;0.30;;;17.60;1.00;;;;;;5034459;28;20176;-75
2022/07/10 06:39:49;;;;;;;0.30;0.30;;;17.60;1.00;;;;;;5034102;28;20512;-75
2022/07/10 06:42:15;;;;;;;0.30;0.30;;;17.50;1.00;;;;;;5034577;28;20196;-75
2022/07/10 06:44:41;;;;;;;0.57;0.57;;;17.60;1.00;;;;;;5034395;28;20231;-75
2022/07/10 06:49:52;;;;;;;0.40;0.40;;;17.70;99.90;;;;;;5023172;28;20594;-75
2022/07/10 06:52:18;;;;;;;0.30;0.30;;;17.70;75.60;;;;;;5023150;28;20223;-75
2022/07/10 06:54:44;;;;;;;0.30;0.30;;;17.80;99.90;;;;;;5022519;28;20203;-75
2022/07/10 06:57:10;;;;;;;0.40;0.40;;;17.60;1.00;;;;;;5021583;28;20191;-75
2022/07/10 06:59:35;;;;;;;0.40;0.40;;;17.60;99.90;;;;;;5029404;28;20214;-76
2022/07/10 07:02:01;;;;;;;0.30;0.30;;;17.50;1.00;;;;;;5030264;28;20199;-75
2022/07/10 07:04:27;;;;;;;0.40;0.40;;;17.40;1.00;;;;;;5027763;28;20171;-75
2022/07/10 07:06:52;;;;;;;0.30;0.30;;;17.30;1.00;;;;;;5025809;28;20181;-75
2022/07/10 07:09:18;;;;;;;0.30;0.30;;;17.30;99.90;;;;;;5025939;28;20165;-75
2022/07/10 07:11:43;;;;;;;0.30;0.30;;;17.40;1.00;;;;;;5024039;28;20191;-75
2022/07/10 07:14:09;;;;;;;0.37;0.37;;;17.70;1.00;;;;;;5018503;28;20180;-75
2022/07/10 07:16:39;;;;;;;0.30;0.30;;;17.90;1.00;;;;;;5016956;28;20183;-75
2022/07/10 07:19:05;;;;;;;0.30;0.30;;;18.10;99.90;;;;;;5018324;28;20203;-75
2022/07/10 07:24:18;;;;;;;0.30;0.30;;;18.30;99.90;;;;;;5025529;28;20242;-76
2022/07/10 07:26:46;;;;;;;0.30;0.30;;;18.60;1.00;;;;;;5025379;28;20212;-75
2022/07/10 07:29:16;;;;;;;0.50;0.50;;;18.90;99.90;;;;;;5030433;28;20176;-75
2022/07/10 07:31:41;;;;;;;0.37;0.37;;;19.20;1.00;;;;;;5031221;28;20233;-76
2022/07/10 07:34:07;;;;;;;0.30;0.30;;;19.60;1.00;;;;;;5030998;28;20180;-76
2022/07/10 07:36:32;;;;;;;0.30;0.30;;;19.90;99.90;;;;;;5031021;28;20172;-75
2022/07/10 07:38:58;;;;;;;0.30;0.30;;;19.70;99.90;;;;;;5030556;28;20180;-76
2022/07/10 07:41:24;;;;;;;0.30;0.30;;;19.50;97.60;;;;;;5030547;28;20221;-76
2022/07/10 07:43:49;;;;;;;0.30;0.30;;;19.00;99.90;;;;;;5031161;28;20183;-75
2022/07/10 07:46:15;;;;;;;0.30;0.30;;;18.80;99.90;;;;;;5029633;28;20203;-76
2022/07/10 07:48:40;;;;;;;0.30;0.30;;;18.80;99.90;;;;;;5031125;28;20180;-76
2022/07/10 07:51:06;;;;;;;0.20;0.20;;;18.80;99.90;;;;;;5026462;28;20256;-76
2022/07/10 07:53:32;;;;;;;0.30;0.30;;;18.80;99.90;;;;;;5023999;28;20195;-75
2022/07/10 07:55:57;;;;;;;0.30;0.30;;;18.90;99.90;;;;;;5026297;28;20187;-76
2022/07/10 07:58:23;;;;;;;0.30;0.30;;;18.80;99.90;;;;;;5024683;28;20176;-75
2022/07/10 08:00:49;;;;;;;0.30;0.30;;;18.70;99.90;;;;;;5020835;28;20188;-76
2022/07/10 08:03:15;;;;;;;0.33;0.33;;;18.70;99.90;;;;;;5023341;28;20207;-76
2022/07/10 08:05:41;;;;;;;0.30;0.30;;;18.80;99.90;;;;;;5028119;28;20237;-76
2022/07/10 08:08:08;;;;;;;0.37;0.37;;;19.00;99.90;;;;;;5024175;28;20181;-77
2022/07/10 08:10:34;;;;;;;0.30;0.30;;;19.00;99.90;;;;;;5017093;28;20180;-76
2022/07/10 08:13:00;;;;;;;0.40;0.40;;;19.30;99.90;;;;;;5015759;28;20542;-76
2022/07/10 08:15:26;;;;;;;0.30;0.30;;;19.80;91.90;;;;;;5021748;28;20222;-77
2022/07/10 08:17:56;;;;;;;0.30;0.30;;;20.70;1.00;;;;;;5018338;28;20168;-76
2022/07/10 08:20:23;;;;;;;0.30;0.30;;;21.70;1.00;;;;;;5017576;28;20279;-76
2022/07/10 08:22:49;;;;;;;0.30;0.30;;;22.60;1.00;;;;;;5017875;28;20203;-77
2022/07/10 08:25:15;;;;;;;0.30;0.30;;;23.40;1.00;;;;;;5001828;28;20662;-76
2022/07/10 08:27:41;;;;;;;0.30;0.30;;;23.80;1.00;;;;;;5015008;28;20172;-76
2022/07/10 08:30:08;;;;;;;0.30;0.30;;;24.10;1.00;;;;;;5019056;28;20677;-76
2022/07/10 08:32:35;;;;;;;0.30;0.30;;;24.40;1.00;;;;;;5024405;28;20245;-77
2022/07/10 08:35:01;;;;;;;0.40;0.40;;;24.30;1.00;;;;;;5021663;28;20637;-76
2022/07/10 08:37:26;;;;;;;0.20;0.20;;;24.20;1.00;;;;;;5018463;28;20175;-74
2022/07/10 08:39:52;;;;;;;0.30;0.30;;;24.30;1.00;;;;;;5023468;28;20179;-74
2022/07/10 08:42:18;;;;;;;0.30;0.30;;;24.20;1.00;;;;;;5015997;28;20284;-76
2022/07/10 08:44:44;;;;;;;0.20;0.20;;;23.80;1.00;;;;;;5023191;28;20208;-75
2022/07/10 08:47:12;;;;;;;0.30;0.30;;;23.20;1.00;;;;;;5026986;28;20541;-74
2022/07/10 08:49:49;;;;;;;0.30;0.30;;;22.70;1.00;;;;;;5030598;28;20191;-75
2022/07/10 08:52:33;;;;;;;0.20;0.20;;;22.20;1.00;;;;;;5029562;28;20846;-75
2022/07/10 08:54:59;;;;;;;0.30;0.30;;;21.80;1.00;;;;;;5022384;28;20265;-75
2022/07/10 08:57:26;;;;;;;0.20;0.20;;;21.60;1.00;;;;;;5029851;28;20219;-76
2022/07/10 08:59:51;;;;;;;0.30;0.30;;;21.40;1.00;;;;;;5028874;28;20982;-77
2022/07/10 09:02:17;;;;;;;0.30;0.30;;;20.90;1.00;;;;;;5023199;28;20200;-76
2022/07/10 09:04:42;;;;;;;0.30;0.30;;;21.10;1.00;;;;;;5015168;28;20210;-76
2022/07/10 09:07:09;;;;;;;0.30;0.30;;;22.30;1.00;;;;;;5015291;28;20571;-75
2022/07/10 09:09:57;;;;;;;0.30;0.30;;;22.80;1.00;;;;;;5016708;28;20217;-76
2022/07/10 09:12:24;;;;;;;0.30;0.30;;;22.70;1.00;;;;;;5016498;28;20192;-76
2022/07/10 09:14:50;;;;;;;0.20;0.20;;;22.50;1.00;;;;;;5023600;28;20268;-76
2022/07/10 09:17:17;;;;;;;0.30;0.30;;;22.00;1.00;;;;;;5029653;28;20244;-76
2022/07/10 09:19:43;;;;;;;0.30;0.30;;;22.10;1.00;;;;;;5028481;28;20183;-76
2022/07/10 09:22:11;;;;;;;0.30;0.30;;;22.30;1.00;;;;;;5029218;28;20231;-76
2022/07/10 09:24:41;;;;;;;0.30;0.30;;;23.00;1.00;;;;;;5024073;28;20211;-75
2022/07/10 09:27:08;;;;;;;0.30;0.30;;;24.10;1.00;;;;;;5032613;28;20238;-76
2022/07/10 09:29:59;;;;;;;0.40;0.40;;;24.60;1.00;;;;;;5023567;28;20231;-76
2022/07/10 09:32:26;;;;;;;0.30;0.30;;;24.20;1.00;;;;;;5013245;28;20205;-76
2022/07/10 09:36:04;;;;;;;0.30;0.30;;;23.40;1.00;;;;;;5012072;28;20173;-75
2022/07/10 09:37:40;;;;;;;0.20;0.20;;;22.90;1.00;;;;;;5014561;28;20187;-76
2022/07/10 09:40:07;;;;;;;0.37;0.37;;;22.60;1.00;;;;;;5017827;28;20176;-74
2022/07/10 09:42:43;;;;;;;0.30;0.30;;;23.30;1.00;;;;;;5015126;28;20246;-76
2022/07/10 09:45:12;;;;;;;0.30;0.30;;;23.90;1.00;;;;;;5017360;28;20211;-77
2022/07/10 09:47:38;;;;;;;0.33;0.33;;;24.60;1.00;;;;;;5016713;28;20176;-77
2022/07/10 09:50:18;;;;;;;0.30;0.30;;;24.60;1.00;;;;;;5017081;28;20172;-78
2022/07/10 09:52:45;;;;;;;0.40;0.40;;;24.30;1.00;;;;;;5023440;28;20533;-77
2022/07/10 09:55:13;;;;;;;0.40;0.40;;;24.40;1.00;;;;;;5020594;28;20176;-76
2022/07/10 09:57:43;;;;;;;0.33;0.33;;;25.00;1.00;;;;;;5015464;28;20187;-77
2022/07/10 10:00:10;;;;;;;0.30;0.30;;;25.40;1.00;;;;;;5020664;28;20211;-76
2022/07/10 10:02:37;;;;;;;0.20;0.20;;;25.60;1.00;;;;;;5034606;28;20334;-77
2022/07/10 10:05:03;;;;;;;0.30;0.30;;;25.20;1.00;;;;;;5033784;28;20256;-76
2022/07/10 10:07:29;;;;;;;0.30;0.30;;;24.50;1.00;;;;;;5034859;28;21659;-76
2022/07/10 10:09:58;;;;;;;0.20;0.20;;;23.80;1.00;;;;;;5042723;28;20233;-75
2022/07/10 10:12:56;;;;;;;0.20;0.20;;;23.40;1.00;;;;;;5028636;28;20208;-77
2022/07/10 10:15:23;;;;;;;0.30;0.30;;;22.80;1.00;;;;;;5025167;28;20195;-75
2022/07/10 10:17:51;;;;;;;0.30;0.30;;;22.30;1.00;;;;;;5022910;28;20252;-76
2022/07/10 10:23:04;;;;;;;0.30;0.30;;;21.70;1.00;;;;;;5025439;28;20195;-77
2022/07/10 10:25:32;;;;;;;0.30;0.30;;;22.50;1.00;;;;;;5026853;28;20894;-77
2022/07/10 10:28:04;;;;;;;0.30;0.30;;;22.90;1.00;;;;;;5026052;28;20175;-76
2022/07/10 10:30:31;;;;;;;0.20;0.20;;;23.00;1.00;;;;;;5026345;28;20646;-77
2022/07/10 10:32:56;;;;;;;0.30;0.30;;;23.00;1.00;;;;;;5025617;28;20220;-77
2022/07/10 10:35:46;;;;;;;0.20;0.20;;;22.90;1.00;;;;;;5026882;28;20210;-76
2022/07/10 10:38:13;;;;;;;0.30;0.30;;;22.70;1.00;;;;;;5024283;28;20183;-77
2022/07/10 10:40:39;;;;;;;0.30;0.30;;;22.70;1.00;;;;;;5024122;28;20203;-76
2022/07/10 10:43:25;;;;;;;0.37;0.37;;;22.80;1.00;;;;;;5026143;28;20234;-77
2022/07/10 10:45:54;;;;;;;0.40;0.40;;;23.00;1.00;;;;;;5023939;28;20215;-77
2022/07/10 10:48:23;;;;;;;0.20;0.20;;;23.30;1.00;;;;;;5026738;28;20175;-77
2022/07/10 10:50:50;;;;;;;0.40;0.40;;;23.80;1.00;;;;;;5023281;28;20646;-76
2022/07/10 10:53:27;;;;;;;0.30;0.30;;;24.60;1.00;;;;;;5024040;28;20211;-77
2022/07/10 10:56:02;;;;;;;0.30;0.30;;;25.30;1.00;;;;;;5024945;28;20175;-77
2022/07/10 10:58:41;;;;;;;0.30;0.30;;;25.40;1.00;;;;;;5026232;28;20278;-77
2022/07/10 11:01:23;;;;;;;0.40;0.40;;;25.80;1.00;;;;;;5024745;28;20172;-77
2022/07/10 11:04:15;;;;;;;0.40;0.40;;;25.60;1.00;;;;;;5026606;28;20171;-77
2022/07/10 11:06:52;;;;;;;0.50;0.50;;;25.60;1.00;;;;;;5021218;28;20563;-77
2022/07/10 11:09:29;;;;;;;0.40;0.40;;;25.90;1.00;;;;;;5025242;28;20176;-76
2022/07/10 11:12:08;;;;;;;0.23;0.23;;;25.90;1.00;;;;;;5022755;28;20341;-77
2022/07/10 11:14:39;;;;;;;0.30;0.30;;;25.00;1.00;;;;;;5024175;28;20179;-76
2022/07/10 11:17:05;;;;;;;0.30;0.30;;;25.00;1.00;;;;;;5031540;28;20268;-76
2022/07/10 11:19:32;;;;;;;0.30;0.30;;;25.40;1.00;;;;;;5031362;28;20176;-77
2022/07/10 11:22:04;;;;;;;0.30;0.30;;;26.10;1.00;;;;;;5031020;28;20746;-77
2022/07/10 11:25:01;;;;;;;0.30;0.30;;;26.20;1.00;;;;;;5031820;28;20191;-77
2022/07/10 11:28:08;;;;;;;0.20;0.20;;;25.90;1.00;;;;;;5020178;28;20188;-78
2022/07/10 11:30:44;;;;;;;0.40;0.40;;;25.00;1.00;;;;;;5031468;28;20172;-77
2022/07/10 11:33:10;;;;;;;0.30;0.30;;;24.70;1.00;;;;;;5031622;28;20233;-77
2022/07/10 11:35:37;;;;;;;0.30;0.30;;;24.70;1.00;;;;;;5031549;28;20653;-77
2022/07/10 11:38:03;;;;;;;0.30;0.30;;;24.40;1.00;;;;;;5030890;28;20641;-77
2022/07/10 11:40:28;;;;;;;0.30;0.30;;;23.90;1.00;;;;;;5030569;28;20286;-77
2022/07/10 11:42:55;;;;;;;0.20;0.20;;;23.40;1.00;;;;;;5030514;28;20303;-77
2022/07/10 11:45:28;;;;;;;0.30;0.30;;;23.10;1.00;;;;;;5030738;28;20733;-77
2022/07/10 11:47:54;;;;;;;0.30;0.30;;;23.30;1.00;;;;;;5030538;28;20212;-77
2022/07/10 11:50:20;;;;;;;0.30;0.30;;;22.90;1.00;;;;;;5030620;28;20195;-77
2022/07/10 11:52:46;;;;;;;0.30;0.30;;;22.70;1.00;;;;;;5030374;28;20254;-77
2022/07/10 11:55:19;;;;;;;0.20;0.20;;;22.70;1.00;;;;;;5029453;28;20184;-76
2022/07/10 11:57:48;;;;;;;0.20;0.20;;;22.50;1.00;;;;;;5035003;28;20180;-76
2022/07/10 12:00:29;;;;;;;0.30;0.30;;;22.40;1.00;;;;;;5028422;28;20187;-76
2022/07/10 12:02:57;;;;;;;0.30;0.30;;;22.50;1.00;;;;;;5023446;28;20550;-76
2022/07/10 12:05:33;;;;;;;0.30;0.30;;;23.40;1.00;;;;;;5029532;28;20219;-76
2022/07/10 12:07:59;;;;;;;0.30;0.30;;;23.70;1.00;;;;;;5029036;28;20549;-76
2022/07/10 12:10:29;;;;;;;0.30;0.30;;;23.90;1.00;;;;;;5029697;28;20191;-76
2022/07/10 12:13:04;;;;;;;0.40;0.40;;;24.00;1.00;;;;;;5026627;28;20213;-77
2022/07/10 12:15:34;;;;;;;0.30;0.30;;;24.60;1.00;;;;;;5027816;28;20267;-76
2022/07/10 12:18:00;;;;;;;0.27;0.27;;;25.00;1.00;;;;;;5027220;28;20192;-76
2022/07/10 12:20:26;;;;;;;0.30;0.30;;;25.60;1.00;;;;;;5032593;28;20682;-77
2022/07/10 12:22:54;;;;;;;0.30;0.30;;;24.90;1.00;;;;;;5031021;28;20463;-76
2022/07/10 12:25:20;;;;;;;0.30;0.30;;;24.30;1.00;;;;;;5022085;28;20208;-76
2022/07/10 12:27:45;;;;;;;0.30;0.30;;;24.00;1.00;;;;;;5009563;28;20176;-77
2022/07/10 12:30:11;;;;;;;0.30;0.30;;;24.20;1.00;;;;;;5024150;28;20233;-76
2022/07/10 12:32:37;;;;;;;0.30;0.30;;;24.40;1.00;;;;;;5022386;28;20195;-77
2022/07/10 12:35:02;;;;;;;0.23;0.23;;;24.60;1.00;;;;;;5025192;28;20191;-77
2022/07/10 12:37:28;;;;;;;0.30;0.30;;;24.60;1.00;;;;;;5023697;28;20261;-76
2022/07/10 12:39:54;;;;;;;0.30;0.30;;;24.80;1.00;;;;;;5023684;28;20171;-76
2022/07/10 12:42:30;;;;;;;0.40;0.40;;;25.00;1.00;;;;;;5026773;28;20609;-76
2022/07/10 12:45:10;;;;;;;0.30;0.30;;;25.20;1.00;;;;;;5026681;28;20260;-75
2022/07/10 12:47:50;;;;;;;0.40;0.40;;;25.30;1.00;;;;;;5029479;28;20241;-76
2022/07/10 12:50:20;;;;;;;0.30;0.30;;;24.80;1.00;;;;;;5020740;28;20184;-76
2022/07/10 12:52:46;;;;;;;0.27;0.27;;;24.60;1.00;;;;;;5019708;28;20192;-76
2022/07/10 12:55:18;;;;;;;0.30;0.30;;;25.10;1.00;;;;;;5019829;28;20269;-75
2022/07/10 12:58:11;;;;;;;0.30;0.30;;;25.30;1.00;;;;;;5017185;28;20176;-75
2022/07/10 13:00:44;;;;;;;0.30;0.30;;;25.30;1.00;;;;;;5016029;28;20168;-76
2022/07/10 13:03:17;;;;;;;0.20;0.20;;;25.30;1.00;;;;;;5018245;28;20200;-75
2022/07/10 13:05:43;;;;;;;0.30;0.30;;;25.00;1.00;;;;;;5023306;28;20254;-76
2022/07/10 13:08:12;;;;;;;0.20;0.20;;;25.00;1.00;;;;;;5021380;28;20180;-75